createdAt,value
2023-01-09T00:00:08.126Z,8.37
2023-01-09T00:01:08.091Z,8.30
2023-01-09T00:02:08.090Z,8.36
2023-01-09T00:03:08.050Z,8.30
2023-01-09T00:04:08.298Z,8.40
2023-01-09T00:05:08.041Z,8.30
2023-01-09T00:06:08.209Z,8.28
2023-01-09T00:07:08.045Z,8.29
2023-01-09T00:08:08.020Z,8.29
2023-01-09T00:09:08.049Z,8.36
2023-01-09T00:10:08.005Z,8.33
2023-01-09T00:11:08.099Z,8.28
2023-01-09T00:12:08.009Z,8.36
2023-01-09T00:13:08.022Z,8.28
2023-01-09T00:14:09.649Z,8.30
2023-01-09T00:15:07.978Z,8.30
2023-01-09T00:16:08.126Z,8.29
2023-01-09T00:17:07.953Z,8.25
2023-01-09T00:18:07.958Z,8.30
2023-01-09T00:19:07.969Z,8.29
2023-01-09T00:20:07.956Z,8.29
2023-01-09T00:21:08.222Z,8.39
2023-01-09T00:22:07.937Z,8.33
2023-01-09T00:23:07.915Z,8.33
2023-01-09T00:24:07.967Z,8.42
2023-01-09T00:25:07.901Z,8.42
2023-01-09T00:26:07.945Z,8.40
2023-01-09T00:27:07.885Z,8.48
2023-01-09T00:28:07.877Z,8.53
2023-01-09T00:29:07.874Z,8.51
2023-01-09T00:30:08.062Z,8.44
2023-01-09T00:31:07.882Z,8.48
2023-01-09T00:32:07.999Z,8.55
2023-01-09T00:33:07.845Z,8.53
2023-01-09T00:34:07.839Z,8.53
2023-01-09T00:35:07.833Z,8.51
2023-01-09T00:36:07.822Z,8.51
2023-01-09T00:37:07.918Z,8.53
2023-01-09T00:38:07.817Z,8.45
2023-01-09T00:39:07.826Z,8.48
2023-01-09T00:40:07.801Z,8.50
2023-01-09T00:41:07.790Z,8.53
2023-01-09T00:42:07.785Z,8.44
2023-01-09T00:43:07.791Z,8.54
2023-01-09T00:44:07.775Z,8.53
2023-01-09T00:45:07.767Z,8.54
2023-01-09T00:46:07.890Z,8.37
2023-01-09T00:47:07.772Z,8.48
2023-01-09T00:48:07.759Z,8.40
2023-01-09T00:49:07.737Z,8.40
2023-01-09T00:50:07.724Z,8.29
2023-01-09T00:51:07.720Z,8.29
2023-01-09T00:52:07.716Z,8.30
2023-01-09T00:53:07.860Z,8.32
2023-01-09T00:54:07.702Z,8.26
2023-01-09T00:55:07.689Z,8.29
2023-01-09T00:56:07.689Z,8.28
2023-01-09T00:57:07.673Z,8.32
2023-01-09T00:58:07.702Z,8.25
2023-01-09T00:59:07.670Z,8.28
2023-01-09T01:00:07.867Z,8.25
2023-01-09T01:01:07.759Z,8.30
2023-01-09T01:02:07.860Z,8.12
2023-01-09T01:03:07.779Z,8.12
2023-01-09T01:04:07.653Z,8.12
2023-01-09T01:05:07.626Z,8.07
2023-01-09T01:06:07.649Z,8.00
2023-01-09T01:07:07.629Z,8.12
2023-01-09T01:08:07.613Z,8.04
2023-01-09T01:09:07.634Z,8.08
2023-01-09T01:10:07.592Z,8.03
2023-01-09T01:11:07.588Z,7.96
2023-01-09T01:12:07.650Z,8.10
2023-01-09T01:13:07.571Z,7.99
2023-01-09T01:14:07.560Z,8.00
2023-01-09T01:15:07.580Z,7.97
2023-01-09T01:16:07.578Z,7.99
2023-01-09T01:17:07.544Z,7.92
2023-01-09T01:18:07.543Z,7.90
2023-01-09T01:19:07.538Z,7.93
2023-01-09T01:20:07.543Z,7.90
2023-01-09T01:21:07.543Z,7.92
2023-01-09T01:22:07.526Z,7.94
2023-01-09T01:23:07.500Z,7.89
2023-01-09T01:24:07.505Z,7.87
2023-01-09T01:25:07.504Z,7.89
2023-01-09T01:26:08.233Z,7.87
2023-01-09T01:27:07.483Z,7.84
2023-01-09T01:28:07.475Z,7.92
2023-01-09T01:29:07.468Z,7.82
2023-01-09T01:30:07.460Z,7.89
2023-01-09T01:31:07.507Z,7.75
2023-01-09T01:32:07.445Z,7.90
2023-01-09T01:33:07.456Z,7.89
2023-01-09T01:34:07.435Z,7.78
2023-01-09T01:35:07.457Z,7.93
2023-01-09T01:36:07.439Z,7.89
2023-01-09T01:37:07.453Z,7.89
2023-01-09T01:38:07.407Z,7.89
2023-01-09T01:39:07.396Z,7.89
2023-01-09T01:40:07.409Z,7.93
2023-01-09T01:41:07.423Z,7.94
2023-01-09T01:42:07.744Z,7.84
2023-01-09T01:43:07.387Z,7.85
2023-01-09T01:44:07.365Z,7.79
2023-01-09T01:45:07.367Z,7.93
2023-01-09T01:46:07.399Z,7.96
2023-01-09T01:47:07.489Z,7.93
2023-01-09T01:48:07.356Z,7.92
2023-01-09T01:49:07.352Z,7.92
2023-01-09T01:50:07.333Z,7.94
2023-01-09T01:51:07.316Z,7.94
2023-01-09T01:52:07.304Z,8.00
2023-01-09T01:53:07.316Z,7.92
2023-01-09T01:54:07.660Z,7.90
2023-01-09T01:55:07.439Z,8.04
2023-01-09T01:56:07.293Z,8.04
2023-01-09T01:57:07.286Z,8.10
2023-01-09T01:58:07.276Z,8.10
2023-01-09T01:59:07.291Z,8.07
2023-01-09T02:00:07.257Z,8.12
2023-01-09T02:01:07.453Z,8.07
2023-01-09T02:02:07.397Z,8.07
2023-01-09T02:03:07.291Z,7.99
2023-01-09T02:04:07.265Z,8.04
2023-01-09T02:05:07.243Z,8.04
2023-01-09T02:06:07.224Z,8.04
2023-01-09T02:07:07.217Z,7.96
2023-01-09T02:08:07.296Z,8.03
2023-01-09T02:09:07.204Z,8.14
2023-01-09T02:10:07.212Z,8.03
2023-01-09T02:11:07.183Z,7.99
2023-01-09T02:12:07.219Z,8.02
2023-01-09T02:13:07.178Z,7.99
2023-01-09T02:14:07.187Z,7.96
2023-01-09T02:15:07.225Z,7.96
2023-01-09T02:16:07.201Z,8.00
2023-01-09T02:17:07.158Z,7.87
2023-01-09T02:18:07.144Z,7.94
2023-01-09T02:19:07.266Z,7.90
2023-01-09T02:20:07.504Z,7.96
2023-01-09T02:21:07.169Z,7.90
2023-01-09T02:22:07.128Z,7.90
2023-01-09T02:23:07.127Z,7.78
2023-01-09T02:24:07.099Z,7.85
2023-01-09T02:25:07.105Z,7.85
2023-01-09T02:26:07.100Z,7.89
2023-01-09T02:27:08.094Z,7.85
2023-01-09T02:28:07.088Z,7.84
2023-01-09T02:29:07.117Z,7.85
2023-01-09T02:30:07.076Z,7.81
2023-01-09T02:31:07.070Z,7.78
2023-01-09T02:32:07.097Z,7.85
2023-01-09T02:33:07.052Z,7.85
2023-01-09T02:34:07.039Z,7.93
2023-01-09T02:35:07.038Z,7.81
2023-01-09T02:36:07.092Z,7.87
2023-01-09T02:37:07.021Z,7.75
2023-01-09T02:38:07.021Z,7.79
2023-01-09T02:39:07.013Z,7.74
2023-01-09T02:40:07.001Z,7.72
2023-01-09T02:41:07.010Z,7.82
2023-01-09T02:42:07.048Z,7.71
2023-01-09T02:43:07.027Z,7.67
2023-01-09T02:44:06.982Z,7.67
2023-01-09T02:45:06.958Z,7.71
2023-01-09T02:46:07.036Z,7.62
2023-01-09T02:47:06.973Z,7.69
2023-01-09T02:48:06.962Z,7.63
2023-01-09T02:49:06.951Z,7.63
2023-01-09T02:50:06.937Z,7.72
2023-01-09T02:51:06.930Z,7.69
2023-01-09T02:52:06.943Z,7.71
2023-01-09T02:53:06.935Z,7.71
2023-01-09T02:54:06.922Z,7.67
2023-01-09T02:55:06.910Z,7.72
2023-01-09T02:56:06.896Z,7.71
2023-01-09T02:57:07.901Z,7.69
2023-01-09T02:58:06.900Z,7.78
2023-01-09T02:59:06.877Z,7.72
2023-01-09T03:00:06.890Z,7.59
2023-01-09T03:01:06.931Z,7.66
2023-01-09T03:02:06.861Z,7.77
2023-01-09T03:03:06.912Z,7.59
2023-01-09T03:04:06.849Z,7.58
2023-01-09T03:05:06.847Z,7.62
2023-01-09T03:06:06.835Z,7.67
2023-01-09T03:07:06.824Z,7.59
2023-01-09T03:08:06.865Z,7.59
2023-01-09T03:09:06.824Z,7.72
2023-01-09T03:10:06.821Z,7.63
2023-01-09T03:11:06.832Z,7.62
2023-01-09T03:12:06.794Z,7.67
2023-01-09T03:13:06.814Z,7.56
2023-01-09T03:14:06.787Z,7.72
2023-01-09T03:15:06.826Z,7.67
2023-01-09T03:16:06.846Z,7.62
2023-01-09T03:17:06.834Z,7.69
2023-01-09T03:18:06.814Z,7.75
2023-01-09T03:19:06.805Z,7.74
2023-01-09T03:20:06.754Z,7.75
2023-01-09T03:21:06.742Z,7.63
2023-01-09T03:22:06.977Z,7.71
2023-01-09T03:23:06.766Z,7.67
2023-01-09T03:24:06.769Z,7.79
2023-01-09T03:25:06.716Z,7.69
2023-01-09T03:26:06.728Z,7.75
2023-01-09T03:27:06.729Z,7.75
2023-01-09T03:28:06.717Z,7.84
2023-01-09T03:29:06.706Z,7.77
2023-01-09T03:30:06.769Z,7.74
2023-01-09T03:31:06.761Z,7.67
2023-01-09T03:32:06.684Z,7.71
2023-01-09T03:33:06.655Z,7.85
2023-01-09T03:34:06.688Z,7.77
2023-01-09T03:35:06.649Z,7.74
2023-01-09T03:36:06.658Z,7.72
2023-01-09T03:37:06.628Z,7.74
2023-01-09T03:38:07.955Z,7.66
2023-01-09T03:39:07.761Z,7.67
2023-01-09T03:40:06.611Z,7.69
2023-01-09T03:41:06.589Z,7.79
2023-01-09T03:42:07.633Z,7.74
2023-01-09T03:43:06.590Z,7.71
2023-01-09T03:44:06.579Z,7.77
2023-01-09T03:45:06.583Z,7.69
2023-01-09T03:46:06.631Z,7.75
2023-01-09T03:47:06.581Z,7.69
2023-01-09T03:48:06.682Z,7.67
2023-01-09T03:49:06.563Z,7.72
2023-01-09T03:50:06.555Z,7.60
2023-01-09T03:51:06.551Z,7.59
2023-01-09T03:52:06.530Z,7.62
2023-01-09T03:53:06.530Z,7.67
2023-01-09T03:54:06.536Z,7.59
2023-01-09T03:55:06.660Z,7.56
2023-01-09T03:56:06.546Z,7.58
2023-01-09T03:57:06.506Z,7.55
2023-01-09T03:58:06.638Z,7.45
2023-01-09T03:59:07.504Z,7.58
2023-01-09T04:00:06.491Z,7.53
2023-01-09T04:01:06.543Z,7.34
2023-01-09T04:02:06.576Z,7.49
2023-01-09T04:03:06.469Z,7.44
2023-01-09T04:04:06.463Z,7.45
2023-01-09T04:05:06.457Z,7.42
2023-01-09T04:06:06.440Z,7.47
2023-01-09T04:07:06.439Z,7.45
2023-01-09T04:08:06.455Z,7.41
2023-01-09T04:09:06.429Z,7.35
2023-01-09T04:10:06.791Z,7.52
2023-01-09T04:11:06.433Z,7.50
2023-01-09T04:12:06.399Z,7.40
2023-01-09T04:13:06.407Z,7.49
2023-01-09T04:14:06.384Z,7.59
2023-01-09T04:15:06.561Z,7.62
2023-01-09T04:16:06.411Z,7.67
2023-01-09T04:17:06.382Z,7.81
2023-01-09T04:18:06.360Z,7.74
2023-01-09T04:19:06.366Z,7.63
2023-01-09T04:20:06.364Z,7.79
2023-01-09T04:21:06.359Z,7.59
2023-01-09T04:22:06.351Z,7.72
2023-01-09T04:23:06.357Z,7.71
2023-01-09T04:24:06.381Z,7.71
2023-01-09T04:25:06.325Z,7.66
2023-01-09T04:26:06.310Z,7.75
2023-01-09T04:27:06.336Z,7.67
2023-01-09T04:28:06.336Z,7.62
2023-01-09T04:29:06.287Z,7.67
2023-01-09T04:30:06.278Z,7.58
2023-01-09T04:31:06.264Z,7.62
2023-01-09T04:32:06.448Z,7.56
2023-01-09T04:33:06.304Z,7.50
2023-01-09T04:34:07.380Z,7.55
2023-01-09T04:35:06.307Z,7.60
2023-01-09T04:36:06.244Z,7.55
2023-01-09T04:37:06.225Z,7.56
2023-01-09T04:38:06.220Z,7.50
2023-01-09T04:39:06.237Z,7.52
2023-01-09T04:40:06.220Z,7.52
2023-01-09T04:41:06.196Z,7.50
2023-01-09T04:42:06.209Z,7.53
2023-01-09T04:43:06.183Z,7.53
2023-01-09T04:44:06.217Z,7.58
2023-01-09T04:45:06.191Z,7.58
2023-01-09T04:46:06.227Z,7.56
2023-01-09T04:47:06.164Z,7.56
2023-01-09T04:48:06.162Z,7.47
2023-01-09T04:49:06.148Z,7.59
2023-01-09T04:50:06.175Z,7.50
2023-01-09T04:51:06.140Z,7.53
2023-01-09T04:52:06.139Z,7.44
2023-01-09T04:53:06.238Z,7.56
2023-01-09T04:54:06.112Z,7.58
2023-01-09T04:55:06.117Z,7.53
2023-01-09T04:56:06.120Z,7.55
2023-01-09T04:57:06.095Z,7.55
2023-01-09T04:58:06.084Z,7.58
2023-01-09T04:59:06.330Z,7.55
2023-01-09T05:00:06.112Z,7.50
2023-01-09T05:01:06.162Z,7.52
2023-01-09T05:02:06.276Z,7.47
2023-01-09T05:03:06.210Z,7.53
2023-01-09T05:04:06.094Z,7.55
2023-01-09T05:05:06.052Z,7.55
2023-01-09T05:06:06.040Z,7.52
2023-01-09T05:07:06.042Z,7.59
2023-01-09T05:08:06.213Z,7.59
2023-01-09T05:09:06.020Z,7.53
2023-01-09T05:10:06.008Z,7.56
2023-01-09T05:11:06.005Z,7.52
2023-01-09T05:12:06.007Z,7.58
2023-01-09T05:13:06.036Z,7.66
2023-01-09T05:14:05.991Z,7.52
2023-01-09T05:15:05.986Z,7.58
2023-01-09T05:16:06.020Z,7.56
2023-01-09T05:17:05.980Z,7.44
2023-01-09T05:18:05.957Z,7.52
2023-01-09T05:19:05.979Z,7.50
2023-01-09T05:20:05.953Z,7.41
2023-01-09T05:21:06.000Z,7.47
2023-01-09T05:22:05.992Z,7.44
2023-01-09T05:23:05.944Z,7.40
2023-01-09T05:24:05.940Z,7.44
2023-01-09T05:25:05.923Z,7.38
2023-01-09T05:26:05.912Z,7.40
2023-01-09T05:27:05.936Z,7.45
2023-01-09T05:28:05.896Z,7.47
2023-01-09T05:29:05.900Z,7.34
2023-01-09T05:30:06.054Z,7.41
2023-01-09T05:31:05.940Z,7.24
2023-01-09T05:32:05.885Z,7.29
2023-01-09T05:33:05.872Z,7.34
2023-01-09T05:34:05.878Z,7.29
2023-01-09T05:35:06.068Z,7.34
2023-01-09T05:36:05.879Z,7.31
2023-01-09T05:37:05.842Z,7.32
2023-01-09T05:38:05.856Z,7.27
2023-01-09T05:39:05.841Z,7.22
2023-01-09T05:40:06.038Z,7.29
2023-01-09T05:41:05.830Z,7.26
2023-01-09T05:42:05.937Z,7.29
2023-01-09T05:43:05.803Z,7.29
2023-01-09T05:44:05.795Z,7.32
2023-01-09T05:45:05.795Z,7.27
2023-01-09T05:46:05.838Z,7.29
2023-01-09T05:47:05.861Z,7.32
2023-01-09T05:48:05.790Z,7.22
2023-01-09T05:49:05.768Z,7.26
2023-01-09T05:50:05.751Z,7.31
2023-01-09T05:51:05.747Z,7.23
2023-01-09T05:52:05.915Z,7.29
2023-01-09T05:53:05.731Z,7.20
2023-01-09T05:54:05.723Z,7.26
2023-01-09T05:55:05.723Z,7.20
2023-01-09T05:56:05.714Z,7.26
2023-01-09T05:57:05.902Z,7.16
2023-01-09T05:58:05.696Z,7.20
2023-01-09T05:59:05.770Z,7.15
2023-01-09T06:00:05.693Z,7.09
2023-01-09T06:01:05.719Z,7.09
2023-01-09T06:02:05.722Z,7.07
2023-01-09T06:03:05.758Z,6.95
2023-01-09T06:04:05.806Z,6.94
2023-01-09T06:05:05.644Z,6.91
2023-01-09T06:06:05.665Z,6.81
2023-01-09T06:07:05.636Z,6.89
2023-01-09T06:08:05.627Z,6.86
2023-01-09T06:09:05.625Z,6.76
2023-01-09T06:10:05.603Z,6.80
2023-01-09T06:11:05.618Z,6.79
2023-01-09T06:12:05.599Z,6.76
2023-01-09T06:13:05.614Z,6.66
2023-01-09T06:14:05.580Z,6.83
2023-01-09T06:15:07.985Z,6.80
2023-01-09T06:16:05.657Z,6.80
2023-01-09T06:17:05.564Z,6.87
2023-01-09T06:18:05.551Z,6.80
2023-01-09T06:19:05.554Z,6.86
2023-01-09T06:20:05.551Z,6.81
2023-01-09T06:21:05.547Z,6.83
2023-01-09T06:22:05.624Z,6.84
2023-01-09T06:23:05.534Z,6.84
2023-01-09T06:24:05.519Z,6.83
2023-01-09T06:25:05.545Z,6.94
2023-01-09T06:26:05.515Z,6.91
2023-01-09T06:27:05.500Z,6.98
2023-01-09T06:28:05.490Z,6.95
2023-01-09T06:29:05.489Z,6.94
2023-01-09T06:30:05.482Z,6.94
2023-01-09T06:31:05.552Z,6.86
2023-01-09T06:32:05.465Z,6.90
2023-01-09T06:33:05.466Z,6.87
2023-01-09T06:34:05.473Z,6.90
2023-01-09T06:35:05.450Z,6.91
2023-01-09T06:36:05.455Z,7.01
2023-01-09T06:37:05.461Z,7.01
2023-01-09T06:38:05.438Z,7.01
2023-01-09T06:39:05.454Z,6.94
2023-01-09T06:40:05.419Z,6.95
2023-01-09T06:41:05.391Z,6.98
2023-01-09T06:42:06.402Z,7.07
2023-01-09T06:43:05.405Z,7.08
2023-01-09T06:44:05.392Z,7.04
2023-01-09T06:45:05.383Z,7.02
2023-01-09T06:46:05.451Z,6.98
2023-01-09T06:47:05.369Z,6.89
2023-01-09T06:48:05.370Z,6.87
2023-01-09T06:49:05.357Z,6.77
2023-01-09T06:50:05.351Z,6.77
2023-01-09T06:51:05.342Z,6.83
2023-01-09T06:52:05.334Z,6.77
2023-01-09T06:53:05.344Z,6.77
2023-01-09T06:54:05.328Z,6.80
2023-01-09T06:55:05.310Z,6.79
2023-01-09T06:56:05.313Z,6.76
2023-01-09T06:57:05.289Z,6.72
2023-01-09T06:58:05.302Z,6.73
2023-01-09T06:59:05.286Z,6.68
2023-01-09T07:00:05.270Z,6.71
2023-01-09T07:01:05.424Z,6.66
2023-01-09T07:02:05.357Z,6.69
2023-01-09T07:03:05.274Z,6.63
2023-01-09T07:04:05.403Z,6.59
2023-01-09T07:05:05.240Z,6.62
2023-01-09T07:06:05.257Z,6.62
2023-01-09T07:07:05.237Z,6.61
2023-01-09T07:08:05.271Z,6.68
2023-01-09T07:09:05.226Z,6.69
2023-01-09T07:10:05.209Z,6.59
2023-01-09T07:11:05.210Z,6.61
2023-01-09T07:12:05.198Z,6.66
2023-01-09T07:13:05.213Z,6.65
2023-01-09T07:14:05.189Z,6.69
2023-01-09T07:15:05.187Z,6.65
2023-01-09T07:16:05.221Z,6.63
2023-01-09T07:17:05.191Z,6.61
2023-01-09T07:18:05.177Z,6.71
2023-01-09T07:19:05.157Z,6.76
2023-01-09T07:20:05.148Z,6.63
2023-01-09T07:21:05.155Z,6.69
2023-01-09T07:22:05.135Z,6.76
2023-01-09T07:23:05.162Z,6.63
2023-01-09T07:24:05.135Z,6.65
2023-01-09T07:25:05.110Z,6.63
2023-01-09T07:26:05.102Z,6.69
2023-01-09T07:27:06.102Z,6.71
2023-01-09T07:28:05.127Z,6.62
2023-01-09T07:29:05.102Z,6.59
2023-01-09T07:30:05.086Z,6.66
2023-01-09T07:31:05.093Z,6.69
2023-01-09T07:32:05.088Z,6.61
2023-01-09T07:33:05.081Z,6.62
2023-01-09T07:34:05.096Z,6.58
2023-01-09T07:35:05.046Z,6.48
2023-01-09T07:36:05.043Z,6.48
2023-01-09T07:37:05.043Z,6.53
2023-01-09T07:38:05.107Z,6.50
2023-01-09T07:39:05.046Z,6.53
2023-01-09T07:40:05.046Z,6.43
2023-01-09T07:41:05.015Z,6.56
2023-01-09T07:42:05.016Z,6.53
2023-01-09T07:43:05.010Z,6.50
2023-01-09T07:44:05.003Z,6.50
2023-01-09T07:45:04.993Z,6.48
2023-01-09T07:46:05.028Z,6.59
2023-01-09T07:47:04.970Z,6.48
2023-01-09T07:48:04.961Z,6.48
2023-01-09T07:49:04.970Z,6.47
2023-01-09T07:50:04.972Z,6.58
2023-01-09T07:51:04.950Z,6.51
2023-01-09T07:52:04.989Z,6.51
2023-01-09T07:53:04.948Z,6.54
2023-01-09T07:54:04.962Z,6.53
2023-01-09T07:55:04.950Z,6.54
2023-01-09T07:56:04.929Z,6.50
2023-01-09T07:57:04.918Z,6.50
2023-01-09T07:58:04.914Z,6.50
2023-01-09T07:59:04.896Z,6.53
2023-01-09T08:00:04.892Z,6.51
2023-01-09T08:01:04.948Z,6.50
2023-01-09T08:02:04.987Z,6.56
2023-01-09T08:03:04.943Z,6.53
2023-01-09T08:04:04.869Z,6.54
2023-01-09T08:05:04.861Z,6.58
2023-01-09T08:06:04.868Z,6.61
2023-01-09T08:07:04.850Z,6.59
2023-01-09T08:08:04.843Z,6.63
2023-01-09T08:09:04.842Z,6.53
2023-01-09T08:10:04.821Z,6.59
2023-01-09T08:11:04.846Z,6.56
2023-01-09T08:12:04.810Z,6.58
2023-01-09T08:13:04.802Z,6.59
2023-01-09T08:14:04.802Z,6.71
2023-01-09T08:15:04.790Z,6.68
2023-01-09T08:16:04.830Z,6.76
2023-01-09T08:17:04.821Z,6.71
2023-01-09T08:18:04.780Z,6.77
2023-01-09T08:19:04.748Z,6.81
2023-01-09T08:20:05.772Z,6.71
2023-01-09T08:21:04.767Z,6.79
2023-01-09T08:22:04.764Z,6.77
2023-01-09T08:23:04.761Z,6.68
2023-01-09T08:24:04.736Z,6.79
2023-01-09T08:25:04.725Z,6.80
2023-01-09T08:26:04.784Z,6.90
2023-01-09T08:27:04.715Z,6.84
2023-01-09T08:28:04.903Z,6.83
2023-01-09T08:29:04.738Z,6.86
2023-01-09T08:30:04.701Z,6.76
2023-01-09T08:31:04.717Z,6.80
2023-01-09T08:32:04.683Z,6.77
2023-01-09T08:33:04.670Z,6.87
2023-01-09T08:34:04.663Z,6.84
2023-01-09T08:35:04.714Z,6.84
2023-01-09T08:36:04.699Z,6.86
2023-01-09T08:37:04.666Z,6.84
2023-01-09T08:38:04.649Z,6.84
2023-01-09T08:39:04.641Z,6.84
2023-01-09T08:40:04.694Z,6.91
2023-01-09T08:41:04.629Z,6.76
2023-01-09T08:42:04.638Z,6.84
2023-01-09T08:43:04.611Z,6.90
2023-01-09T08:44:04.621Z,6.98
2023-01-09T08:45:04.604Z,7.02
2023-01-09T08:46:04.623Z,6.97
2023-01-09T08:47:04.603Z,6.99
2023-01-09T08:48:04.584Z,6.98
2023-01-09T08:49:04.568Z,7.05
2023-01-09T08:50:04.561Z,6.95
2023-01-09T08:51:04.571Z,6.98
2023-01-09T08:52:04.572Z,7.02
2023-01-09T08:53:04.603Z,7.01
2023-01-09T08:54:04.544Z,6.99
2023-01-09T08:55:04.617Z,7.09
2023-01-09T08:56:04.523Z,7.05
2023-01-09T08:57:04.536Z,7.09
2023-01-09T08:58:04.527Z,7.16
2023-01-09T08:59:04.508Z,7.24
2023-01-09T09:00:04.501Z,7.13
2023-01-09T09:01:04.497Z,7.31
2023-01-09T09:02:04.497Z,7.26
2023-01-09T09:03:04.577Z,7.71
2023-01-09T09:04:04.472Z,7.92
2023-01-09T09:05:04.489Z,8.14
2023-01-09T09:06:04.483Z,7.94
2023-01-09T09:07:04.483Z,7.93
2023-01-09T09:08:04.468Z,7.67
2023-01-09T09:09:04.521Z,7.53
2023-01-09T09:10:04.447Z,7.50
2023-01-09T09:11:04.419Z,7.45
2023-01-09T09:12:05.430Z,7.40
2023-01-09T09:13:04.437Z,7.40
2023-01-09T09:14:04.445Z,7.41
2023-01-09T09:15:04.414Z,7.74
2023-01-09T09:16:04.417Z,8.69
2023-01-09T09:17:04.402Z,8.68
2023-01-09T09:18:04.408Z,8.57
2023-01-09T09:19:04.393Z,8.32
2023-01-09T09:20:04.404Z,8.14
2023-01-09T09:21:04.377Z,8.12
2023-01-09T09:22:04.374Z,7.97
2023-01-09T09:23:04.351Z,8.03
2023-01-09T09:24:04.369Z,8.54
2023-01-09T09:25:04.339Z,8.72
2023-01-09T09:26:04.338Z,9.57
2023-01-09T09:27:04.339Z,10.21
2023-01-09T09:28:04.319Z,10.01
2023-01-09T09:29:04.365Z,10.18
2023-01-09T09:30:04.331Z,9.57
2023-01-09T09:31:04.371Z,9.09
2023-01-09T09:32:04.307Z,8.72
2023-01-09T09:33:04.304Z,8.47
2023-01-09T09:34:04.303Z,8.35
2023-01-09T09:35:04.273Z,8.12
2023-01-09T09:36:05.289Z,8.08
2023-01-09T09:37:04.328Z,7.81
2023-01-09T09:38:05.598Z,7.78
2023-01-09T09:39:05.261Z,7.81
2023-01-09T09:40:17.438Z,7.74
2023-01-09T09:41:05.270Z,7.74
2023-01-09T09:42:04.250Z,7.72
2023-01-09T09:43:04.266Z,7.85
2023-01-09T09:44:04.218Z,7.75
2023-01-09T09:45:04.222Z,7.82
2023-01-09T09:46:04.272Z,7.90
2023-01-09T09:47:04.214Z,7.78
2023-01-09T09:48:04.194Z,7.77
2023-01-09T09:49:06.477Z,7.79
2023-01-09T09:50:04.203Z,8.08
2023-01-09T09:51:04.178Z,8.11
2023-01-09T09:52:04.183Z,8.28
2023-01-09T09:53:04.153Z,8.15
2023-01-09T09:54:04.158Z,8.12
2023-01-09T09:55:04.151Z,8.26
2023-01-09T09:56:04.153Z,9.21
2023-01-09T09:57:04.156Z,10.55
2023-01-09T09:58:04.130Z,10.73
2023-01-09T09:59:04.117Z,11.13
2023-01-09T10:00:04.106Z,11.49
2023-01-09T10:01:04.114Z,11.87
2023-01-09T10:02:04.154Z,11.93
2023-01-09T10:03:04.146Z,12.04
2023-01-09T10:04:04.149Z,11.74
2023-01-09T10:05:04.089Z,11.80
2023-01-09T10:06:04.083Z,10.94
2023-01-09T10:07:04.073Z,11.06
2023-01-09T10:08:15.418Z,10.65
2023-01-09T10:09:06.069Z,10.71
2023-01-09T10:10:04.060Z,10.65
2023-01-09T10:11:04.037Z,11.17
2023-01-09T10:12:04.067Z,11.39
2023-01-09T10:13:04.031Z,11.06
2023-01-09T10:14:05.931Z,10.60
2023-01-09T10:15:05.017Z,11.19
2023-01-09T10:16:04.136Z,11.71
2023-01-09T10:17:04.010Z,11.74
2023-01-09T10:18:03.997Z,11.90
2023-01-09T10:19:04.003Z,12.19
2023-01-09T10:20:03.982Z,12.11
2023-01-09T10:21:04.990Z,12.30
2023-01-09T10:22:03.963Z,11.57
2023-01-09T10:23:03.974Z,11.03
2023-01-09T10:24:03.951Z,11.61
2023-01-09T10:25:03.949Z,11.57
2023-01-09T10:26:03.950Z,10.55
2023-01-09T10:27:03.952Z,10.09
2023-01-09T10:28:03.934Z,9.68
2023-01-09T10:29:03.917Z,9.32
2023-01-09T10:30:03.924Z,9.06
2023-01-09T10:31:03.966Z,8.79
2023-01-09T10:32:03.923Z,8.48
2023-01-09T10:33:03.901Z,8.57
2023-01-09T10:34:03.886Z,8.73
2023-01-09T10:35:03.883Z,10.01
2023-01-09T10:36:03.892Z,11.14
2023-01-09T10:37:03.916Z,11.20
2023-01-09T10:38:03.865Z,11.03
2023-01-09T10:39:03.858Z,10.65
2023-01-09T10:40:03.850Z,9.96
2023-01-09T10:41:03.836Z,9.34
2023-01-09T10:42:03.833Z,9.24
2023-01-09T10:43:03.839Z,9.64
2023-01-09T10:44:03.825Z,9.31
2023-01-09T10:45:03.836Z,9.13
2023-01-09T10:46:03.803Z,9.02
2023-01-09T10:47:03.789Z,9.34
2023-01-09T10:48:03.791Z,9.24
2023-01-09T10:49:03.789Z,9.66
2023-01-09T10:50:03.767Z,9.99
2023-01-09T10:51:03.784Z,9.99
2023-01-09T10:52:03.766Z,9.73
2023-01-09T10:53:03.738Z,9.78
2023-01-09T10:54:03.743Z,9.71
2023-01-09T10:55:03.737Z,9.97
2023-01-09T10:56:03.744Z,10.18
2023-01-09T10:57:03.726Z,10.01
2023-01-09T10:58:03.723Z,10.40
2023-01-09T10:59:03.720Z,9.99
2023-01-09T11:00:03.718Z,10.06
2023-01-09T11:01:03.709Z,9.71
2023-01-09T11:02:03.714Z,9.58
2023-01-09T11:03:03.704Z,10.14
2023-01-09T11:04:03.705Z,9.97
2023-01-09T11:05:03.694Z,9.64
2023-01-09T11:06:03.661Z,9.42
2023-01-09T11:07:03.679Z,9.21
2023-01-09T11:08:03.647Z,9.12
2023-01-09T11:09:03.628Z,9.05
2023-01-09T11:10:03.625Z,8.81
2023-01-09T11:11:03.663Z,8.71
2023-01-09T11:12:03.619Z,8.66
2023-01-09T11:13:03.610Z,8.62
2023-01-09T11:14:03.606Z,8.55
2023-01-09T11:15:03.623Z,8.53
2023-01-09T11:16:03.631Z,8.54
2023-01-09T11:17:03.600Z,8.63
2023-01-09T11:18:03.571Z,8.51
2023-01-09T11:19:03.602Z,8.51
2023-01-09T11:20:03.564Z,8.50
2023-01-09T11:21:03.566Z,8.54
2023-01-09T11:22:03.555Z,8.65
2023-01-09T11:23:03.545Z,8.58
2023-01-09T11:24:03.546Z,8.51
2023-01-09T11:25:03.566Z,8.40
2023-01-09T11:26:03.547Z,8.45
2023-01-09T11:27:03.527Z,8.36
2023-01-09T11:28:03.537Z,8.30
2023-01-09T11:29:03.517Z,8.28
2023-01-09T11:30:03.541Z,8.22
2023-01-09T11:31:03.549Z,8.21
2023-01-09T11:32:03.478Z,8.29
2023-01-09T11:33:03.477Z,8.28
2023-01-09T11:34:03.483Z,8.42
2023-01-09T11:35:03.446Z,8.44
2023-01-09T11:36:03.464Z,8.40
2023-01-09T11:37:03.540Z,8.53
2023-01-09T11:38:03.431Z,8.50
2023-01-09T11:39:03.426Z,8.45
2023-01-09T11:40:03.452Z,8.47
2023-01-09T11:41:03.431Z,8.36
2023-01-09T11:42:04.443Z,8.45
2023-01-09T11:43:03.398Z,8.44
2023-01-09T11:44:03.409Z,8.40
2023-01-09T11:45:03.389Z,8.39
2023-01-09T11:46:03.403Z,8.30
2023-01-09T11:47:03.415Z,8.29
2023-01-09T11:48:03.378Z,8.20
2023-01-09T11:49:03.377Z,8.14
2023-01-09T11:50:03.368Z,8.08
2023-01-09T11:51:03.344Z,8.10
2023-01-09T11:52:03.367Z,7.97
2023-01-09T11:53:03.346Z,8.03
2023-01-09T11:54:03.349Z,7.94
2023-01-09T11:55:03.334Z,7.94
2023-01-09T11:56:03.343Z,8.02
2023-01-09T11:57:03.327Z,7.97
2023-01-09T11:58:03.302Z,7.94
2023-01-09T11:59:03.293Z,7.99
2023-01-09T12:00:03.338Z,8.00
2023-01-09T12:01:03.349Z,7.99
2023-01-09T12:02:03.332Z,8.04
2023-01-09T12:03:03.322Z,7.94
2023-01-09T12:04:03.270Z,7.96
2023-01-09T12:05:03.271Z,7.94
2023-01-09T12:06:03.257Z,8.00
2023-01-09T12:07:03.277Z,8.10
2023-01-09T12:08:03.248Z,8.04
2023-01-09T12:09:03.263Z,8.11
2023-01-09T12:10:03.303Z,7.97
2023-01-09T12:11:03.254Z,7.92
2023-01-09T12:12:03.265Z,7.96
2023-01-09T12:13:03.223Z,8.10
2023-01-09T12:14:03.210Z,8.11
2023-01-09T12:15:03.206Z,8.25
2023-01-09T12:16:03.251Z,8.32
2023-01-09T12:17:03.182Z,8.29
2023-01-09T12:18:03.203Z,8.29
2023-01-09T12:19:03.169Z,8.42
2023-01-09T12:20:03.171Z,8.44
2023-01-09T12:21:03.169Z,8.47
2023-01-09T12:22:03.149Z,8.40
2023-01-09T12:23:03.141Z,8.35
2023-01-09T12:24:03.144Z,8.45
2023-01-09T12:25:03.135Z,8.40
2023-01-09T12:26:03.129Z,8.35
2023-01-09T12:27:03.115Z,8.37
2023-01-09T12:28:03.119Z,8.50
2023-01-09T12:29:03.927Z,8.54
2023-01-09T12:30:03.119Z,8.62
2023-01-09T12:31:03.108Z,8.68
2023-01-09T12:32:03.113Z,8.69
2023-01-09T12:33:03.089Z,8.86
2023-01-09T12:34:03.069Z,8.86
2023-01-09T12:35:03.052Z,8.71
2023-01-09T12:36:03.080Z,8.58
2023-01-09T12:37:03.048Z,8.48
2023-01-09T12:38:03.049Z,8.48
2023-01-09T12:39:03.029Z,8.47
2023-01-09T12:40:03.027Z,8.42
2023-01-09T12:41:03.025Z,8.51
2023-01-09T12:42:03.001Z,8.48
2023-01-09T12:43:03.012Z,8.53
2023-01-09T12:44:02.996Z,8.44
2023-01-09T12:45:02.984Z,8.53
2023-01-09T12:46:03.033Z,8.58
2023-01-09T12:47:02.971Z,8.48
2023-01-09T12:48:02.964Z,8.40
2023-01-09T12:49:02.966Z,8.33
2023-01-09T12:50:02.982Z,8.30
2023-01-09T12:51:02.968Z,8.28
2023-01-09T12:52:02.947Z,8.42
2023-01-09T12:53:02.934Z,8.53
2023-01-09T12:54:02.915Z,8.53
2023-01-09T12:55:04.957Z,8.72
2023-01-09T12:56:03.929Z,8.83
2023-01-09T12:57:02.913Z,8.78
2023-01-09T12:58:02.894Z,8.73
2023-01-09T12:59:04.445Z,8.62
2023-01-09T13:00:02.893Z,8.53
2023-01-09T13:01:02.941Z,8.48
2023-01-09T13:02:02.874Z,8.50
2023-01-09T13:03:11.925Z,8.47
2023-01-09T13:04:04.865Z,8.42
2023-01-09T13:05:02.867Z,8.39
2023-01-09T13:06:02.860Z,8.45
2023-01-09T13:07:02.836Z,8.39
2023-01-09T13:08:02.851Z,8.39
2023-01-09T13:09:02.821Z,8.30
2023-01-09T13:10:02.807Z,8.25
2023-01-09T13:11:14.825Z,8.32
2023-01-09T13:12:04.806Z,8.37
2023-01-09T13:13:02.790Z,8.36
2023-01-09T13:14:02.780Z,8.29
2023-01-09T13:15:02.782Z,8.32
2023-01-09T13:16:02.838Z,8.29
2023-01-09T13:17:02.763Z,8.35